sensor_id;sensor_type;location;lat;lon;timestamp;P1;durP1;ratioP1;P2;durP2;ratioP2
3369;SDS011;42042;51.948;7.628;2023-04-01T00:01:41;4.30;;;2.57;;
3369;SDS011;42042;51.948;7.628;2023-04-01T00:04:10;6.70;;;2.50;;
3369;SDS011;42042;51.948;7.628;2023-04-01T00:06:37;5.40;;;3.40;;
3369;SDS011;42042;51.948;7.628;2023-04-01T00:09:05;4.90;;;2.50;;
3369;SDS011;42042;51.948;7.628;2023-04-01T00:11:32;5.00;;;2.43;;
3369;SDS011;42042;51.948;7.628;2023-04-01T00:13:59;7.30;;;2.60;;
3369;SDS011;42042;51.948;7.628;2023-04-01T00:16:26;4.40;;;2.33;;
3369;SDS011;42042;51.948;7.628;2023-04-01T00:18:54;6.53;;;3.03;;
3369;SDS011;42042;51.948;7.628;2023-04-01T00:21:22;9.13;;;2.57;;
3369;SDS011;42042;51.948;7.628;2023-04-01T00:23:50;6.60;;;2.70;;
3369;SDS011;42042;51.948;7.628;2023-04-01T00:26:17;3.63;;;3.30;;
3369;SDS011;42042;51.948;7.628;2023-04-01T00:28:46;8.83;;;3.03;;
3369;SDS011;42042;51.948;7.628;2023-04-01T00:31:13;4.33;;;2.93;;
3369;SDS011;42042;51.948;7.628;2023-04-01T00:33:40;5.83;;;3.00;;
3369;SDS011;42042;51.948;7.628;2023-04-01T00:36:08;4.13;;;2.43;;
3369;SDS011;42042;51.948;7.628;2023-04-01T00:38:37;5.93;;;2.70;;
3369;SDS011;42042;51.948;7.628;2023-04-01T00:41:06;4.83;;;2.80;;
3369;SDS011;42042;51.948;7.628;2023-04-01T00:43:33;4.30;;;2.57;;
3369;SDS011;42042;51.948;7.628;2023-04-01T00:46:00;3.40;;;2.77;;
3369;SDS011;42042;51.948;7.628;2023-04-01T00:48:29;2.93;;;2.67;;
3369;SDS011;42042;51.948;7.628;2023-04-01T00:50:57;5.70;;;3.17;;
3369;SDS011;42042;51.948;7.628;2023-04-01T00:53:26;3.20;;;2.90;;
3369;SDS011;42042;51.948;7.628;2023-04-01T00:55:57;4.97;;;3.30;;
3369;SDS011;42042;51.948;7.628;2023-04-01T00:58:25;4.33;;;3.10;;
3369;SDS011;42042;51.948;7.628;2023-04-01T01:00:54;5.00;;;3.13;;
3369;SDS011;42042;51.948;7.628;2023-04-01T01:03:22;6.60;;;2.63;;
3369;SDS011;42042;51.948;7.628;2023-04-01T01:05:53;4.00;;;3.10;;
3369;SDS011;42042;51.948;7.628;2023-04-01T01:08:26;4.13;;;2.87;;
3369;SDS011;42042;51.948;7.628;2023-04-01T01:10:57;4.10;;;2.70;;
3369;SDS011;42042;51.948;7.628;2023-04-01T01:13:25;3.33;;;3.00;;
3369;SDS011;42042;51.948;7.628;2023-04-01T01:15:56;8.20;;;3.23;;
3369;SDS011;42042;51.948;7.628;2023-04-01T01:18:26;7.80;;;3.33;;
3369;SDS011;42042;51.948;7.628;2023-04-01T01:21:03;3.30;;;3.00;;
3369;SDS011;42042;51.948;7.628;2023-04-01T01:23:46;3.63;;;2.47;;
3369;SDS011;42042;51.948;7.628;2023-04-01T01:26:25;3.57;;;2.80;;
3369;SDS011;42042;51.948;7.628;2023-04-01T01:29:01;4.67;;;2.37;;
3369;SDS011;42042;51.948;7.628;2023-04-01T01:31:34;7.10;;;2.83;;
3369;SDS011;42042;51.948;7.628;2023-04-01T01:34:07;5.30;;;2.63;;
3369;SDS011;42042;51.948;7.628;2023-04-01T01:36:40;4.67;;;2.90;;
3369;SDS011;42042;51.948;7.628;2023-04-01T01:39:10;4.80;;;3.37;;
3369;SDS011;42042;51.948;7.628;2023-04-01T01:41:39;4.57;;;2.80;;
3369;SDS011;42042;51.948;7.628;2023-04-01T01:44:08;3.30;;;3.00;;
3369;SDS011;42042;51.948;7.628;2023-04-01T01:46:35;3.43;;;3.13;;
3369;SDS011;42042;51.948;7.628;2023-04-01T01:49:05;6.55;;;3.22;;
3369;SDS011;42042;51.948;7.628;2023-04-01T01:51:34;5.10;;;3.07;;
3369;SDS011;42042;51.948;7.628;2023-04-01T01:54:02;3.63;;;3.10;;
3369;SDS011;42042;51.948;7.628;2023-04-01T01:56:29;3.80;;;3.10;;
3369;SDS011;42042;51.948;7.628;2023-04-01T01:58:58;4.97;;;3.37;;
3369;SDS011;42042;51.948;7.628;2023-04-01T02:01:27;5.13;;;3.20;;
3369;SDS011;42042;51.948;7.628;2023-04-01T02:03:55;3.20;;;2.90;;
3369;SDS011;42042;51.948;7.628;2023-04-01T02:06:23;4.23;;;3.17;;
3369;SDS011;42042;51.948;7.628;2023-04-01T02:08:52;4.73;;;3.37;;
3369;SDS011;42042;51.948;7.628;2023-04-01T02:11:22;5.50;;;3.90;;
3369;SDS011;42042;51.948;7.628;2023-04-01T02:13:52;5.70;;;3.80;;
3369;SDS011;42042;51.948;7.628;2023-04-01T02:16:22;3.20;;;3.00;;
3369;SDS011;42042;51.948;7.628;2023-04-01T02:18:50;3.53;;;3.23;;
3369;SDS011;42042;51.948;7.628;2023-04-01T02:21:20;4.70;;;3.23;;
3369;SDS011;42042;51.948;7.628;2023-04-01T02:23:48;3.50;;;3.20;;
3369;SDS011;42042;51.948;7.628;2023-04-01T02:26:16;3.80;;;3.50;;
3369;SDS011;42042;51.948;7.628;2023-04-01T02:28:45;2.73;;;2.53;;
3369;SDS011;42042;51.948;7.628;2023-04-01T02:31:13;5.73;;;3.40;;
3369;SDS011;42042;51.948;7.628;2023-04-01T02:33:41;3.53;;;3.23;;
3369;SDS011;42042;51.948;7.628;2023-04-01T02:36:10;4.50;;;3.20;;
3369;SDS011;42042;51.948;7.628;2023-04-01T02:38:37;5.20;;;3.00;;
3369;SDS011;42042;51.948;7.628;2023-04-01T02:41:05;6.30;;;3.30;;
3369;SDS011;42042;51.948;7.628;2023-04-01T02:43:32;5.90;;;4.10;;
3369;SDS011;42042;51.948;7.628;2023-04-01T02:46:01;5.20;;;2.80;;
3369;SDS011;42042;51.948;7.628;2023-04-01T02:48:28;3.47;;;3.17;;
3369;SDS011;42042;51.948;7.628;2023-04-01T02:50:55;3.50;;;3.20;;
3369;SDS011;42042;51.948;7.628;2023-04-01T02:53:23;3.60;;;3.30;;
3369;SDS011;42042;51.948;7.628;2023-04-01T02:55:50;3.07;;;2.77;;
3369;SDS011;42042;51.948;7.628;2023-04-01T02:58:17;3.30;;;3.00;;
3369;SDS011;42042;51.948;7.628;2023-04-01T03:00:44;5.00;;;2.97;;
3369;SDS011;42042;51.948;7.628;2023-04-01T03:03:13;3.00;;;2.80;;
3369;SDS011;42042;51.948;7.628;2023-04-01T03:05:40;2.30;;;2.20;;
3369;SDS011;42042;51.948;7.628;2023-04-01T03:08:07;6.40;;;2.93;;
3369;SDS011;42042;51.948;7.628;2023-04-01T03:10:35;3.03;;;2.80;;
3369;SDS011;42042;51.948;7.628;2023-04-01T03:13:02;2.60;;;2.40;;
3369;SDS011;42042;51.948;7.628;2023-04-01T03:15:29;4.63;;;2.90;;
3369;SDS011;42042;51.948;7.628;2023-04-01T03:17:57;3.47;;;2.37;;
3369;SDS011;42042;51.948;7.628;2023-04-01T03:20:25;2.97;;;2.77;;
3369;SDS011;42042;51.948;7.628;2023-04-01T03:22:52;2.47;;;2.27;;
3369;SDS011;42042;51.948;7.628;2023-04-01T03:25:20;2.70;;;2.50;;
3369;SDS011;42042;51.948;7.628;2023-04-01T03:27:47;2.90;;;2.70;;
3369;SDS011;42042;51.948;7.628;2023-04-01T03:30:14;3.27;;;2.97;;
3369;SDS011;42042;51.948;7.628;2023-04-01T03:32:41;3.13;;;2.93;;
3369;SDS011;42042;51.948;7.628;2023-04-01T03:35:08;3.00;;;2.80;;
3369;SDS011;42042;51.948;7.628;2023-04-01T03:37:37;5.13;;;3.63;;
3369;SDS011;42042;51.948;7.628;2023-04-01T03:40:05;6.20;;;2.90;;
3369;SDS011;42042;51.948;7.628;2023-04-01T03:42:32;3.33;;;3.03;;
3369;SDS011;42042;51.948;7.628;2023-04-01T03:45:00;6.30;;;2.93;;
3369;SDS011;42042;51.948;7.628;2023-04-01T03:47:27;3.30;;;2.83;;
3369;SDS011;42042;51.948;7.628;2023-04-01T03:49:54;3.33;;;3.03;;
3369;SDS011;42042;51.948;7.628;2023-04-01T03:52:21;3.60;;;3.37;;
3369;SDS011;42042;51.948;7.628;2023-04-01T03:54:50;3.73;;;3.43;;
3369;SDS011;42042;51.948;7.628;2023-04-01T03:57:17;4.33;;;3.87;;
3369;SDS011;42042;51.948;7.628;2023-04-01T03:59:44;4.00;;;3.70;;
3369;SDS011;42042;51.948;7.628;2023-04-01T04:02:11;4.20;;;3.80;;
3369;SDS011;42042;51.948;7.628;2023-04-01T04:04:39;4.20;;;3.90;;
3369;SDS011;42042;51.948;7.628;2023-04-01T04:07:06;4.70;;;4.30;;
3369;SDS011;42042;51.948;7.628;2023-04-01T04:09:33;4.80;;;4.10;;
3369;SDS011;42042;51.948;7.628;2023-04-01T04:12:02;8.10;;;3.93;;
3369;SDS011;42042;51.948;7.628;2023-04-01T04:14:30;4.97;;;4.23;;
3369;SDS011;42042;51.948;7.628;2023-04-01T04:16:57;4.30;;;3.93;;
3369;SDS011;42042;51.948;7.628;2023-04-01T04:19:24;5.03;;;4.53;;
3369;SDS011;42042;51.948;7.628;2023-04-01T04:21:52;6.63;;;5.60;;
3369;SDS011;42042;51.948;7.628;2023-04-01T04:24:19;4.33;;;3.90;;
3369;SDS011;42042;51.948;7.628;2023-04-01T04:26:46;4.87;;;4.47;;
3369;SDS011;42042;51.948;7.628;2023-04-01T04:29:15;6.23;;;4.30;;
3369;SDS011;42042;51.948;7.628;2023-04-01T04:31:42;6.00;;;3.80;;
3369;SDS011;42042;51.948;7.628;2023-04-01T04:34:09;6.67;;;4.63;;
3369;SDS011;42042;51.948;7.628;2023-04-01T04:36:36;4.67;;;4.27;;
3369;SDS011;42042;51.948;7.628;2023-04-01T04:39:03;6.07;;;4.30;;
3369;SDS011;42042;51.948;7.628;2023-04-01T04:41:31;6.07;;;4.40;;
3369;SDS011;42042;51.948;7.628;2023-04-01T04:43:58;5.70;;;5.10;;
3369;SDS011;42042;51.948;7.628;2023-04-01T04:46:26;5.30;;;4.10;;
3369;SDS011;42042;51.948;7.628;2023-04-01T04:48:53;4.53;;;4.13;;
3369;SDS011;42042;51.948;7.628;2023-04-01T04:51:21;5.50;;;5.00;;
3369;SDS011;42042;51.948;7.628;2023-04-01T04:53:48;4.63;;;4.00;;
3369;SDS011;42042;51.948;7.628;2023-04-01T04:56:17;4.60;;;4.00;;
3369;SDS011;42042;51.948;7.628;2023-04-01T04:58:44;6.43;;;4.13;;
3369;SDS011;42042;51.948;7.628;2023-04-01T05:01:13;4.03;;;3.73;;
3369;SDS011;42042;51.948;7.628;2023-04-01T05:03:41;3.67;;;3.37;;
3369;SDS011;42042;51.948;7.628;2023-04-01T05:06:09;4.67;;;3.57;;
3369;SDS011;42042;51.948;7.628;2023-04-01T05:08:37;6.00;;;3.53;;
3369;SDS011;42042;51.948;7.628;2023-04-01T05:11:06;4.33;;;3.60;;
3369;SDS011;42042;51.948;7.628;2023-04-01T05:13:34;5.47;;;3.40;;
3369;SDS011;42042;51.948;7.628;2023-04-01T05:16:02;3.70;;;3.40;;
3369;SDS011;42042;51.948;7.628;2023-04-01T05:18:29;4.50;;;4.10;;
3369;SDS011;42042;51.948;7.628;2023-04-01T05:20:58;3.43;;;3.23;;
3369;SDS011;42042;51.948;7.628;2023-04-01T05:23:25;8.20;;;3.80;;
3369;SDS011;42042;51.948;7.628;2023-04-01T05:25:52;3.83;;;3.40;;
3369;SDS011;42042;51.948;7.628;2023-04-01T05:28:19;4.83;;;3.50;;
3369;SDS011;42042;51.948;7.628;2023-04-01T05:30:46;5.20;;;4.40;;
3369;SDS011;42042;51.948;7.628;2023-04-01T05:33:14;4.63;;;4.23;;
3369;SDS011;42042;51.948;7.628;2023-04-01T05:35:41;4.47;;;4.07;;
3369;SDS011;42042;51.948;7.628;2023-04-01T05:38:10;4.60;;;4.20;;
3369;SDS011;42042;51.948;7.628;2023-04-01T05:40:37;5.20;;;4.70;;
3369;SDS011;42042;51.948;7.628;2023-04-01T05:43:04;5.17;;;4.47;;
3369;SDS011;42042;51.948;7.628;2023-04-01T05:45:31;5.37;;;4.87;;
3369;SDS011;42042;51.948;7.628;2023-04-01T05:47:59;6.07;;;5.43;;
3369;SDS011;42042;51.948;7.628;2023-04-01T05:50:26;4.90;;;4.50;;
3369;SDS011;42042;51.948;7.628;2023-04-01T05:52:54;5.50;;;5.00;;
3369;SDS011;42042;51.948;7.628;2023-04-01T05:55:22;6.00;;;5.40;;
3369;SDS011;42042;51.948;7.628;2023-04-01T05:57:50;6.63;;;5.63;;
3369;SDS011;42042;51.948;7.628;2023-04-01T06:00:17;5.80;;;5.30;;
3369;SDS011;42042;51.948;7.628;2023-04-01T06:02:45;6.73;;;6.23;;
3369;SDS011;42042;51.948;7.628;2023-04-01T06:05:13;8.67;;;7.67;;
3369;SDS011;42042;51.948;7.628;2023-04-01T06:07:41;7.53;;;6.60;;
3369;SDS011;42042;51.948;7.628;2023-04-01T06:10:10;7.43;;;6.63;;
3369;SDS011;42042;51.948;7.628;2023-04-01T06:12:41;7.20;;;6.60;;
3369;SDS011;42042;51.948;7.628;2023-04-01T06:15:13;8.90;;;7.80;;
3369;SDS011;42042;51.948;7.628;2023-04-01T06:17:48;11.67;;;9.17;;
3369;SDS011;42042;51.948;7.628;2023-04-01T06:20:20;7.80;;;6.87;;
3369;SDS011;42042;51.948;7.628;2023-04-01T06:25:47;12.10;;;8.07;;
3369;SDS011;42042;51.948;7.628;2023-04-01T06:28:33;9.17;;;8.27;;
3369;SDS011;42042;51.948;7.628;2023-04-01T06:31:06;10.10;;;9.10;;
3369;SDS011;42042;51.948;7.628;2023-04-01T06:33:44;10.40;;;8.80;;
3369;SDS011;42042;51.948;7.628;2023-04-01T06:36:19;9.27;;;8.13;;
3369;SDS011;42042;51.948;7.628;2023-04-01T06:38:58;13.80;;;9.20;;
3369;SDS011;42042;51.948;7.628;2023-04-01T06:44:18;10.20;;;9.10;;
3369;SDS011;42042;51.948;7.628;2023-04-01T06:46:52;8.97;;;8.17;;
3369;SDS011;42042;51.948;7.628;2023-04-01T06:49:30;10.30;;;8.87;;
3369;SDS011;42042;51.948;7.628;2023-04-01T06:51:59;9.73;;;8.43;;
3369;SDS011;42042;51.948;7.628;2023-04-01T06:54:28;11.00;;;8.60;;
3369;SDS011;42042;51.948;7.628;2023-04-01T06:56:58;9.77;;;8.77;;
3369;SDS011;42042;51.948;7.628;2023-04-01T06:59:30;10.03;;;9.03;;
3369;SDS011;42042;51.948;7.628;2023-04-01T07:01:59;7.93;;;7.13;;
3369;SDS011;42042;51.948;7.628;2023-04-01T07:04:28;7.93;;;7.23;;
3369;SDS011;42042;51.948;7.628;2023-04-01T07:06:57;8.10;;;7.33;;
3369;SDS011;42042;51.948;7.628;2023-04-01T07:09:26;10.03;;;7.90;;
3369;SDS011;42042;51.948;7.628;2023-04-01T07:11:55;8.17;;;7.43;;
3369;SDS011;42042;51.948;7.628;2023-04-01T07:14:24;8.73;;;7.90;;
3369;SDS011;42042;51.948;7.628;2023-04-01T07:16:56;8.70;;;7.43;;
3369;SDS011;42042;51.948;7.628;2023-04-01T07:19:26;8.50;;;7.77;;
3369;SDS011;42042;51.948;7.628;2023-04-01T07:21:56;7.77;;;7.00;;
3369;SDS011;42042;51.948;7.628;2023-04-01T07:24:27;7.67;;;7.03;;
3369;SDS011;42042;51.948;7.628;2023-04-01T07:26:56;7.80;;;6.97;;
3369;SDS011;42042;51.948;7.628;2023-04-01T07:29:24;6.77;;;6.27;;
3369;SDS011;42042;51.948;7.628;2023-04-01T07:34:36;6.53;;;5.93;;
3369;SDS011;42042;51.948;7.628;2023-04-01T07:37:06;7.93;;;7.23;;
3369;SDS011;42042;51.948;7.628;2023-04-01T07:39:38;6.07;;;5.57;;
3369;SDS011;42042;51.948;7.628;2023-04-01T07:42:13;6.40;;;5.90;;
3369;SDS011;42042;51.948;7.628;2023-04-01T07:44:44;6.20;;;5.57;;
3369;SDS011;42042;51.948;7.628;2023-04-01T07:47:22;7.10;;;6.40;;
3369;SDS011;42042;51.948;7.628;2023-04-01T07:49:57;5.70;;;5.20;;
3369;SDS011;42042;51.948;7.628;2023-04-01T07:52:30;8.10;;;6.13;;
3369;SDS011;42042;51.948;7.628;2023-04-01T07:55:04;7.27;;;6.57;;
3369;SDS011;42042;51.948;7.628;2023-04-01T07:57:34;6.70;;;6.10;;
3369;SDS011;42042;51.948;7.628;2023-04-01T08:00:06;6.90;;;5.80;;
3369;SDS011;42042;51.948;7.628;2023-04-01T08:02:40;5.67;;;5.17;;
3369;SDS011;42042;51.948;7.628;2023-04-01T08:05:14;6.33;;;5.83;;
3369;SDS011;42042;51.948;7.628;2023-04-01T08:07:44;6.90;;;6.30;;
3369;SDS011;42042;51.948;7.628;2023-04-01T08:10:15;7.23;;;5.30;;
3369;SDS011;42042;51.948;7.628;2023-04-01T08:12:45;7.00;;;6.33;;
3369;SDS011;42042;51.948;7.628;2023-04-01T08:15:16;5.70;;;5.20;;
3369;SDS011;42042;51.948;7.628;2023-04-01T08:17:49;7.00;;;6.30;;
3369;SDS011;42042;51.948;7.628;2023-04-01T08:20:25;8.73;;;6.00;;
3369;SDS011;42042;51.948;7.628;2023-04-01T08:22:53;5.83;;;5.40;;
3369;SDS011;42042;51.948;7.628;2023-04-01T08:25:24;6.27;;;5.77;;
3369;SDS011;42042;51.948;7.628;2023-04-01T08:27:53;8.93;;;7.87;;
3369;SDS011;42042;51.948;7.628;2023-04-01T08:30:23;8.00;;;6.70;;
3369;SDS011;42042;51.948;7.628;2023-04-01T08:32:51;6.20;;;5.70;;
3369;SDS011;42042;51.948;7.628;2023-04-01T08:35:26;6.50;;;6.00;;
3369;SDS011;42042;51.948;7.628;2023-04-01T08:37:53;7.00;;;6.30;;
3369;SDS011;42042;51.948;7.628;2023-04-01T08:43:09;7.70;;;6.50;;
3369;SDS011;42042;51.948;7.628;2023-04-01T08:45:44;7.10;;;5.53;;
3369;SDS011;42042;51.948;7.628;2023-04-01T08:48:23;5.67;;;5.07;;
3369;SDS011;42042;51.948;7.628;2023-04-01T08:53:42;6.50;;;5.67;;
3369;SDS011;42042;51.948;7.628;2023-04-01T08:56:13;6.33;;;5.73;;
3369;SDS011;42042;51.948;7.628;2023-04-01T09:01:34;5.80;;;5.30;;
3369;SDS011;42042;51.948;7.628;2023-04-01T09:04:13;5.90;;;5.40;;
3369;SDS011;42042;51.948;7.628;2023-04-01T09:06:45;5.97;;;5.47;;
3369;SDS011;42042;51.948;7.628;2023-04-01T09:12:14;5.63;;;5.23;;
3369;SDS011;42042;51.948;7.628;2023-04-01T09:23:29;6.93;;;6.07;;
3369;SDS011;42042;51.948;7.628;2023-04-01T09:26:17;17.50;;;14.73;;
3369;SDS011;42042;51.948;7.628;2023-04-01T09:28:50;9.33;;;8.40;;
3369;SDS011;42042;51.948;7.628;2023-04-01T09:34:15;6.23;;;5.73;;
3369;SDS011;42042;51.948;7.628;2023-04-01T09:36:47;7.37;;;6.67;;
3369;SDS011;42042;51.948;7.628;2023-04-01T09:39:33;6.57;;;6.07;;
3369;SDS011;42042;51.948;7.628;2023-04-01T09:42:07;7.50;;;6.90;;
3369;SDS011;42042;51.948;7.628;2023-04-01T09:44:37;7.83;;;7.13;;
3369;SDS011;42042;51.948;7.628;2023-04-01T09:47:14;7.67;;;6.97;;
3369;SDS011;42042;51.948;7.628;2023-04-01T09:49:54;7.50;;;6.77;;
3369;SDS011;42042;51.948;7.628;2023-04-01T09:52:25;6.90;;;6.30;;
3369;SDS011;42042;51.948;7.628;2023-04-01T09:55:05;5.87;;;5.47;;
3369;SDS011;42042;51.948;7.628;2023-04-01T09:57:38;5.70;;;5.30;;
3369;SDS011;42042;51.948;7.628;2023-04-01T10:00:21;6.40;;;5.80;;
3369;SDS011;42042;51.948;7.628;2023-04-01T10:03:10;8.80;;;5.90;;
3369;SDS011;42042;51.948;7.628;2023-04-01T10:05:50;15.97;;;14.37;;
3369;SDS011;42042;51.948;7.628;2023-04-01T10:14:18;6.70;;;6.20;;
3369;SDS011;42042;51.948;7.628;2023-04-01T10:19:52;5.50;;;5.00;;
3369;SDS011;42042;51.948;7.628;2023-04-01T10:22:26;4.50;;;4.20;;
3369;SDS011;42042;51.948;7.628;2023-04-01T10:25:05;5.27;;;4.90;;
3369;SDS011;42042;51.948;7.628;2023-04-01T10:27:44;6.93;;;5.40;;
3369;SDS011;42042;51.948;7.628;2023-04-01T10:30:23;6.07;;;5.67;;
3369;SDS011;42042;51.948;7.628;2023-04-01T10:33:10;6.63;;;6.10;;
3369;SDS011;42042;51.948;7.628;2023-04-01T10:35:59;6.70;;;6.00;;
3369;SDS011;42042;51.948;7.628;2023-04-01T10:38:37;6.90;;;6.20;;
3369;SDS011;42042;51.948;7.628;2023-04-01T10:41:34;5.40;;;5.00;;
3369;SDS011;42042;51.948;7.628;2023-04-01T10:47:09;6.60;;;5.17;;
3369;SDS011;42042;51.948;7.628;2023-04-01T10:52:56;5.77;;;5.27;;
3369;SDS011;42042;51.948;7.628;2023-04-01T10:55:36;6.10;;;5.50;;
3369;SDS011;42042;51.948;7.628;2023-04-01T11:01:03;5.80;;;5.10;;
3369;SDS011;42042;51.948;7.628;2023-04-01T11:03:40;4.77;;;4.43;;
3369;SDS011;42042;51.948;7.628;2023-04-01T11:06:30;5.10;;;4.77;;
3369;SDS011;42042;51.948;7.628;2023-04-01T11:14:52;5.40;;;5.00;;
3369;SDS011;42042;51.948;7.628;2023-04-01T11:17:40;6.00;;;5.50;;
3369;SDS011;42042;51.948;7.628;2023-04-01T11:23:02;5.17;;;4.67;;
3369;SDS011;42042;51.948;7.628;2023-04-01T11:25:54;6.00;;;5.60;;
3369;SDS011;42042;51.948;7.628;2023-04-01T11:31:14;4.20;;;4.00;;
3369;SDS011;42042;51.948;7.628;2023-04-01T11:33:46;3.77;;;3.57;;
3369;SDS011;42042;51.948;7.628;2023-04-01T11:36:20;3.30;;;3.10;;
3369;SDS011;42042;51.948;7.628;2023-04-01T11:38:55;3.83;;;3.50;;
3369;SDS011;42042;51.948;7.628;2023-04-01T11:41:26;3.17;;;2.97;;
3369;SDS011;42042;51.948;7.628;2023-04-01T11:44:03;4.20;;;3.90;;
3369;SDS011;42042;51.948;7.628;2023-04-01T11:46:38;3.80;;;3.50;;
3369;SDS011;42042;51.948;7.628;2023-04-01T11:49:07;4.33;;;4.03;;
3369;SDS011;42042;51.948;7.628;2023-04-01T11:51:44;3.70;;;3.40;;
3369;SDS011;42042;51.948;7.628;2023-04-01T11:54:20;4.40;;;4.03;;
3369;SDS011;42042;51.948;7.628;2023-04-01T11:56:54;3.37;;;3.17;;
3369;SDS011;42042;51.948;7.628;2023-04-01T12:02:10;4.10;;;3.80;;
3369;SDS011;42042;51.948;7.628;2023-04-01T12:04:49;8.27;;;4.77;;
3369;SDS011;42042;51.948;7.628;2023-04-01T12:07:22;4.07;;;3.67;;
3369;SDS011;42042;51.948;7.628;2023-04-01T12:09:53;4.40;;;4.10;;
3369;SDS011;42042;51.948;7.628;2023-04-01T12:12:27;4.20;;;3.90;;
3369;SDS011;42042;51.948;7.628;2023-04-01T12:15:00;6.17;;;4.73;;
3369;SDS011;42042;51.948;7.628;2023-04-01T12:17:33;3.40;;;3.20;;
3369;SDS011;42042;51.948;7.628;2023-04-01T12:20:10;5.13;;;4.73;;
3369;SDS011;42042;51.948;7.628;2023-04-01T12:22:44;4.70;;;4.33;;
3369;SDS011;42042;51.948;7.628;2023-04-01T12:25:22;4.17;;;3.77;;
3369;SDS011;42042;51.948;7.628;2023-04-01T12:27:58;4.37;;;3.60;;
3369;SDS011;42042;51.948;7.628;2023-04-01T12:30:41;3.43;;;3.23;;
3369;SDS011;42042;51.948;7.628;2023-04-01T12:33:24;4.40;;;3.33;;
3369;SDS011;42042;51.948;7.628;2023-04-01T12:35:56;3.90;;;3.60;;
3369;SDS011;42042;51.948;7.628;2023-04-01T12:38:31;2.70;;;2.50;;
3369;SDS011;42042;51.948;7.628;2023-04-01T12:41:07;3.10;;;2.90;;
3369;SDS011;42042;51.948;7.628;2023-04-01T12:46:32;3.30;;;3.00;;
3369;SDS011;42042;51.948;7.628;2023-04-01T12:51:50;3.77;;;3.47;;
3369;SDS011;42042;51.948;7.628;2023-04-01T12:54:37;3.40;;;3.17;;
3369;SDS011;42042;51.948;7.628;2023-04-01T12:57:12;4.23;;;3.93;;
3369;SDS011;42042;51.948;7.628;2023-04-01T12:59:48;4.60;;;4.20;;
3369;SDS011;42042;51.948;7.628;2023-04-01T13:02:21;4.80;;;4.30;;
3369;SDS011;42042;51.948;7.628;2023-04-01T13:07:51;5.20;;;4.70;;
3369;SDS011;42042;51.948;7.628;2023-04-01T13:10:25;6.03;;;5.30;;
3369;SDS011;42042;51.948;7.628;2023-04-01T13:13:00;7.50;;;6.80;;
3369;SDS011;42042;51.948;7.628;2023-04-01T13:15:35;6.80;;;6.20;;
3369;SDS011;42042;51.948;7.628;2023-04-01T13:18:07;6.60;;;5.87;;
3369;SDS011;42042;51.948;7.628;2023-04-01T13:20:42;6.70;;;5.17;;
3369;SDS011;42042;51.948;7.628;2023-04-01T13:23:15;5.60;;;5.10;;
3369;SDS011;42042;51.948;7.628;2023-04-01T13:25:47;14.00;;;6.20;;
3369;SDS011;42042;51.948;7.628;2023-04-01T13:28:15;7.80;;;5.40;;
3369;SDS011;42042;51.948;7.628;2023-04-01T13:30:47;7.30;;;6.03;;
3369;SDS011;42042;51.948;7.628;2023-04-01T13:33:17;6.37;;;5.77;;
3369;SDS011;42042;51.948;7.628;2023-04-01T13:35:53;7.97;;;5.10;;
3369;SDS011;42042;51.948;7.628;2023-04-01T13:41:09;6.57;;;5.87;;
3369;SDS011;42042;51.948;7.628;2023-04-01T13:43:42;7.00;;;6.20;;
3369;SDS011;42042;51.948;7.628;2023-04-01T13:46:23;6.50;;;5.93;;
3369;SDS011;42042;51.948;7.628;2023-04-01T13:49:07;6.50;;;5.70;;
3369;SDS011;42042;51.948;7.628;2023-04-01T13:51:50;7.63;;;5.67;;
3369;SDS011;42042;51.948;7.628;2023-04-01T13:57:14;6.43;;;5.07;;
3369;SDS011;42042;51.948;7.628;2023-04-01T13:59:51;5.30;;;4.80;;
3369;SDS011;42042;51.948;7.628;2023-04-01T14:02:28;6.50;;;5.00;;
3369;SDS011;42042;51.948;7.628;2023-04-01T14:05:03;5.13;;;4.63;;
3369;SDS011;42042;51.948;7.628;2023-04-01T14:07:40;5.33;;;4.87;;
3369;SDS011;42042;51.948;7.628;2023-04-01T14:10:14;4.93;;;4.43;;
3369;SDS011;42042;51.948;7.628;2023-04-01T14:12:46;5.60;;;5.00;;
3369;SDS011;42042;51.948;7.628;2023-04-01T14:15:23;5.90;;;5.37;;
3369;SDS011;42042;51.948;7.628;2023-04-01T14:17:54;11.60;;;5.70;;
3369;SDS011;42042;51.948;7.628;2023-04-01T14:20:32;6.33;;;5.73;;
3369;SDS011;42042;51.948;7.628;2023-04-01T14:25:48;14.43;;;12.93;;
3369;SDS011;42042;51.948;7.628;2023-04-01T14:28:24;6.53;;;4.90;;
3369;SDS011;42042;51.948;7.628;2023-04-01T14:31:04;4.83;;;4.43;;
3369;SDS011;42042;51.948;7.628;2023-04-01T14:33:39;6.20;;;4.87;;
3369;SDS011;42042;51.948;7.628;2023-04-01T14:36:29;5.00;;;4.50;;
3369;SDS011;42042;51.948;7.628;2023-04-01T14:39:00;5.10;;;4.70;;
3369;SDS011;42042;51.948;7.628;2023-04-01T14:41:35;4.57;;;4.17;;
3369;SDS011;42042;51.948;7.628;2023-04-01T14:50:03;5.20;;;4.80;;
3369;SDS011;42042;51.948;7.628;2023-04-01T14:52:32;5.33;;;4.90;;
3369;SDS011;42042;51.948;7.628;2023-04-01T14:55:00;5.27;;;4.80;;
3369;SDS011;42042;51.948;7.628;2023-04-01T14:57:28;4.83;;;4.43;;
3369;SDS011;42042;51.948;7.628;2023-04-01T14:59:59;5.40;;;4.90;;
3369;SDS011;42042;51.948;7.628;2023-04-01T15:02:31;5.10;;;4.60;;
3369;SDS011;42042;51.948;7.628;2023-04-01T15:05:04;5.40;;;4.90;;
3369;SDS011;42042;51.948;7.628;2023-04-01T15:07:41;4.73;;;4.33;;
3369;SDS011;42042;51.948;7.628;2023-04-01T15:10:12;4.30;;;3.90;;
3369;SDS011;42042;51.948;7.628;2023-04-01T15:12:48;4.67;;;4.20;;
3369;SDS011;42042;51.948;7.628;2023-04-01T15:15:23;3.93;;;3.63;;
3369;SDS011;42042;51.948;7.628;2023-04-01T15:18:04;4.90;;;4.40;;
3369;SDS011;42042;51.948;7.628;2023-04-01T15:20:47;4.70;;;4.30;;
3369;SDS011;42042;51.948;7.628;2023-04-01T15:23:19;3.70;;;3.00;;
3369;SDS011;42042;51.948;7.628;2023-04-01T15:25:59;3.83;;;3.37;;
3369;SDS011;42042;51.948;7.628;2023-04-01T15:28:32;3.33;;;3.03;;
3369;SDS011;42042;51.948;7.628;2023-04-01T15:31:04;3.70;;;3.43;;
3369;SDS011;42042;51.948;7.628;2023-04-01T15:33:52;3.90;;;3.50;;
3369;SDS011;42042;51.948;7.628;2023-04-01T15:36:28;4.50;;;3.83;;
3369;SDS011;42042;51.948;7.628;2023-04-01T15:38:58;4.57;;;4.17;;
3369;SDS011;42042;51.948;7.628;2023-04-01T15:41:28;4.90;;;4.50;;
3369;SDS011;42042;51.948;7.628;2023-04-01T15:44:03;4.97;;;4.40;;
3369;SDS011;42042;51.948;7.628;2023-04-01T15:46:36;5.00;;;4.60;;
3369;SDS011;42042;51.948;7.628;2023-04-01T15:49:19;5.80;;;4.27;;
3369;SDS011;42042;51.948;7.628;2023-04-01T15:52:00;4.70;;;4.30;;
3369;SDS011;42042;51.948;7.628;2023-04-01T15:54:54;6.13;;;5.60;;
3369;SDS011;42042;51.948;7.628;2023-04-01T15:57:26;6.60;;;6.00;;
3369;SDS011;42042;51.948;7.628;2023-04-01T16:00:06;8.00;;;7.20;;
3369;SDS011;42042;51.948;7.628;2023-04-01T16:02:38;6.90;;;6.07;;
3369;SDS011;42042;51.948;7.628;2023-04-01T16:05:11;7.93;;;7.23;;
3369;SDS011;42042;51.948;7.628;2023-04-01T16:07:54;7.20;;;6.53;;
3369;SDS011;42042;51.948;7.628;2023-04-01T16:10:25;5.57;;;5.07;;
3369;SDS011;42042;51.948;7.628;2023-04-01T16:12:59;8.30;;;6.47;;
3369;SDS011;42042;51.948;7.628;2023-04-01T16:15:33;5.50;;;5.00;;
3369;SDS011;42042;51.948;7.628;2023-04-01T16:18:10;5.43;;;4.93;;
3369;SDS011;42042;51.948;7.628;2023-04-01T16:20:44;6.90;;;4.87;;
3369;SDS011;42042;51.948;7.628;2023-04-01T16:23:16;6.43;;;4.73;;
3369;SDS011;42042;51.948;7.628;2023-04-01T16:25:46;6.80;;;5.47;;
3369;SDS011;42042;51.948;7.628;2023-04-01T16:28:18;6.97;;;6.23;;
3369;SDS011;42042;51.948;7.628;2023-04-01T16:30:47;6.67;;;5.80;;
3369;SDS011;42042;51.948;7.628;2023-04-01T16:33:18;6.93;;;6.23;;
3369;SDS011;42042;51.948;7.628;2023-04-01T16:35:50;4.70;;;4.20;;
3369;SDS011;42042;51.948;7.628;2023-04-01T16:38:24;5.43;;;4.90;;
3369;SDS011;42042;51.948;7.628;2023-04-01T16:41:06;5.43;;;4.93;;
3369;SDS011;42042;51.948;7.628;2023-04-01T16:43:37;4.43;;;4.03;;
3369;SDS011;42042;51.948;7.628;2023-04-01T16:46:13;9.63;;;8.73;;
3369;SDS011;42042;51.948;7.628;2023-04-01T16:51:32;4.17;;;3.87;;
3369;SDS011;42042;51.948;7.628;2023-04-01T16:54:04;3.80;;;3.50;;
3369;SDS011;42042;51.948;7.628;2023-04-01T16:56:36;5.20;;;3.87;;
3369;SDS011;42042;51.948;7.628;2023-04-01T16:59:07;3.60;;;3.30;;